sensor_id;sensor_type;location;lat;lon;timestamp;temperature;humidity
46730;DHT22;32476;50.002;11.854;2023-04-24T00:00:33;8.80;99.90
46730;DHT22;32476;50.002;11.854;2023-04-24T00:03:00;8.80;99.90
46730;DHT22;32476;50.002;11.854;2023-04-24T00:05:27;8.80;99.90
46730;DHT22;32476;50.002;11.854;2023-04-24T00:07:53;8.80;99.90
46730;DHT22;32476;50.002;11.854;2023-04-24T00:10:20;8.80;99.90
46730;DHT22;32476;50.002;11.854;2023-04-24T00:12:46;8.80;99.90
46730;DHT22;32476;50.002;11.854;2023-04-24T00:15:12;8.80;99.90
46730;DHT22;32476;50.002;11.854;2023-04-24T00:17:39;8.80;99.90
46730;DHT22;32476;50.002;11.854;2023-04-24T00:20:06;8.80;99.90
46730;DHT22;32476;50.002;11.854;2023-04-24T00:22:33;8.80;99.90
46730;DHT22;32476;50.002;11.854;2023-04-24T00:25:00;8.80;99.90
46730;DHT22;32476;50.002;11.854;2023-04-24T00:27:26;8.80;99.90
46730;DHT22;32476;50.002;11.854;2023-04-24T00:29:51;8.70;99.90
46730;DHT22;32476;50.002;11.854;2023-04-24T00:32:19;8.70;99.90
46730;DHT22;32476;50.002;11.854;2023-04-24T00:34:44;8.70;99.90
46730;DHT22;32476;50.002;11.854;2023-04-24T00:37:10;8.70;99.90
46730;DHT22;32476;50.002;11.854;2023-04-24T00:39:38;8.70;99.90
46730;DHT22;32476;50.002;11.854;2023-04-24T00:42:04;8.70;99.90
46730;DHT22;32476;50.002;11.854;2023-04-24T00:44:33;8.60;99.90
46730;DHT22;32476;50.002;11.854;2023-04-24T00:47:01;8.60;99.90
46730;DHT22;32476;50.002;11.854;2023-04-24T00:49:27;8.60;99.90
46730;DHT22;32476;50.002;11.854;2023-04-24T00:51:53;8.60;99.90
46730;DHT22;32476;50.002;11.854;2023-04-24T00:54:21;8.60;99.90
46730;DHT22;32476;50.002;11.854;2023-04-24T00:56:47;8.60;99.90
46730;DHT22;32476;50.002;11.854;2023-04-24T00:59:13;8.60;99.90
46730;DHT22;32476;50.002;11.854;2023-04-24T01:01:40;8.60;99.90
46730;DHT22;32476;50.002;11.854;2023-04-24T01:04:07;8.60;99.90
46730;DHT22;32476;50.002;11.854;2023-04-24T01:06:38;8.50;99.90
46730;DHT22;32476;50.002;11.854;2023-04-24T01:09:06;8.50;99.90
46730;DHT22;32476;50.002;11.854;2023-04-24T01:11:36;8.50;99.90
46730;DHT22;32476;50.002;11.854;2023-04-24T01:14:02;8.50;99.90
46730;DHT22;32476;50.002;11.854;2023-04-24T01:16:30;8.50;99.90
46730;DHT22;32476;50.002;11.854;2023-04-24T01:18:55;8.50;99.90
46730;DHT22;32476;50.002;11.854;2023-04-24T01:21:23;8.40;99.90
46730;DHT22;32476;50.002;11.854;2023-04-24T01:23:54;8.40;99.90
46730;DHT22;32476;50.002;11.854;2023-04-24T01:26:22;8.30;99.90
46730;DHT22;32476;50.002;11.854;2023-04-24T01:28:48;8.30;99.90
46730;DHT22;32476;50.002;11.854;2023-04-24T01:31:16;8.40;99.90
46730;DHT22;32476;50.002;11.854;2023-04-24T01:33:42;8.30;99.90
46730;DHT22;32476;50.002;11.854;2023-04-24T01:36:10;8.30;99.90
46730;DHT22;32476;50.002;11.854;2023-04-24T01:38:38;8.30;99.90
46730;DHT22;32476;50.002;11.854;2023-04-24T01:41:03;8.30;99.90
46730;DHT22;32476;50.002;11.854;2023-04-24T01:43:30;8.40;99.90
46730;DHT22;32476;50.002;11.854;2023-04-24T01:45:58;8.40;99.90
46730;DHT22;32476;50.002;11.854;2023-04-24T01:48:24;8.40;99.90
46730;DHT22;32476;50.002;11.854;2023-04-24T01:50:50;8.40;99.90
46730;DHT22;32476;50.002;11.854;2023-04-24T01:53:17;8.40;99.90
46730;DHT22;32476;50.002;11.854;2023-04-24T01:55:43;8.30;99.90
46730;DHT22;32476;50.002;11.854;2023-04-24T01:58:09;8.30;99.90
46730;DHT22;32476;50.002;11.854;2023-04-24T02:00:36;8.20;99.90
46730;DHT22;32476;50.002;11.854;2023-04-24T02:03:02;8.20;99.90
46730;DHT22;32476;50.002;11.854;2023-04-24T02:05:28;8.20;99.90
46730;DHT22;32476;50.002;11.854;2023-04-24T02:07:55;8.20;99.90
46730;DHT22;32476;50.002;11.854;2023-04-24T02:10:21;8.20;99.90
46730;DHT22;32476;50.002;11.854;2023-04-24T02:12:47;8.20;99.90
46730;DHT22;32476;50.002;11.854;2023-04-24T02:15:14;8.20;99.90
46730;DHT22;32476;50.002;11.854;2023-04-24T02:17:40;8.20;99.90
46730;DHT22;32476;50.002;11.854;2023-04-24T02:20:07;8.10;99.90
46730;DHT22;32476;50.002;11.854;2023-04-24T02:22:34;8.10;99.90
46730;DHT22;32476;50.002;11.854;2023-04-24T02:25:00;8.10;99.90
46730;DHT22;32476;50.002;11.854;2023-04-24T02:27:26;8.10;99.90
46730;DHT22;32476;50.002;11.854;2023-04-24T02:29:53;8.10;99.90
46730;DHT22;32476;50.002;11.854;2023-04-24T02:32:19;8.20;99.90
46730;DHT22;32476;50.002;11.854;2023-04-24T02:34:47;8.20;99.90
46730;DHT22;32476;50.002;11.854;2023-04-24T02:37:14;8.20;99.90
46730;DHT22;32476;50.002;11.854;2023-04-24T02:39:40;8.20;99.90
46730;DHT22;32476;50.002;11.854;2023-04-24T02:42:06;8.20;99.90
46730;DHT22;32476;50.002;11.854;2023-04-24T02:44:35;8.20;99.90
46730;DHT22;32476;50.002;11.854;2023-04-24T02:47:00;8.30;99.90
46730;DHT22;32476;50.002;11.854;2023-04-24T02:49:26;8.20;99.90
46730;DHT22;32476;50.002;11.854;2023-04-24T02:51:54;8.20;99.90
46730;DHT22;32476;50.002;11.854;2023-04-24T02:54:19;8.20;99.90
46730;DHT22;32476;50.002;11.854;2023-04-24T02:56:45;8.20;99.90
46730;DHT22;32476;50.002;11.854;2023-04-24T02:59:13;8.20;99.90
46730;DHT22;32476;50.002;11.854;2023-04-24T03:01:38;8.20;99.90
46730;DHT22;32476;50.002;11.854;2023-04-24T03:04:04;8.20;99.90
46730;DHT22;32476;50.002;11.854;2023-04-24T03:06:32;8.20;99.90
46730;DHT22;32476;50.002;11.854;2023-04-24T03:08:58;8.10;99.90
46730;DHT22;32476;50.002;11.854;2023-04-24T03:11:24;8.10;99.90
46730;DHT22;32476;50.002;11.854;2023-04-24T03:13:52;8.10;99.90
46730;DHT22;32476;50.002;11.854;2023-04-24T03:16:17;8.10;99.90
46730;DHT22;32476;50.002;11.854;2023-04-24T03:18:43;8.10;99.90
46730;DHT22;32476;50.002;11.854;2023-04-24T03:21:11;8.10;99.90
46730;DHT22;32476;50.002;11.854;2023-04-24T03:23:37;8.10;99.90
46730;DHT22;32476;50.002;11.854;2023-04-24T03:26:03;8.10;99.90
46730;DHT22;32476;50.002;11.854;2023-04-24T03:28:30;8.10;99.90
46730;DHT22;32476;50.002;11.854;2023-04-24T03:30:56;8.10;99.90
46730;DHT22;32476;50.002;11.854;2023-04-24T03:33:22;8.20;99.90
46730;DHT22;32476;50.002;11.854;2023-04-24T03:35:49;8.10;99.90
46730;DHT22;32476;50.002;11.854;2023-04-24T03:38:15;8.10;99.90
46730;DHT22;32476;50.002;11.854;2023-04-24T03:40:41;8.10;99.90
46730;DHT22;32476;50.002;11.854;2023-04-24T03:43:08;8.10;99.90
46730;DHT22;32476;50.002;11.854;2023-04-24T03:45:34;8.10;99.90
46730;DHT22;32476;50.002;11.854;2023-04-24T03:48:00;8.10;99.90
46730;DHT22;32476;50.002;11.854;2023-04-24T03:50:27;8.10;99.90
46730;DHT22;32476;50.002;11.854;2023-04-24T03:52:55;8.10;99.90
46730;DHT22;32476;50.002;11.854;2023-04-24T03:55:21;8.10;99.90
46730;DHT22;32476;50.002;11.854;2023-04-24T03:57:48;8.10;99.90
46730;DHT22;32476;50.002;11.854;2023-04-24T04:00:14;8.00;99.90
46730;DHT22;32476;50.002;11.854;2023-04-24T04:02:46;8.00;99.90
46730;DHT22;32476;50.002;11.854;2023-04-24T04:05:14;8.00;99.90
46730;DHT22;32476;50.002;11.854;2023-04-24T04:07:40;8.00;99.90
46730;DHT22;32476;50.002;11.854;2023-04-24T04:10:06;8.00;99.90
46730;DHT22;32476;50.002;11.854;2023-04-24T04:12:34;8.00;99.90
46730;DHT22;32476;50.002;11.854;2023-04-24T04:15:00;7.90;99.90
46730;DHT22;32476;50.002;11.854;2023-04-24T04:17:25;7.90;99.90
46730;DHT22;32476;50.002;11.854;2023-04-24T04:19:53;7.90;99.90
46730;DHT22;32476;50.002;11.854;2023-04-24T04:22:18;8.00;99.90
46730;DHT22;32476;50.002;11.854;2023-04-24T04:24:44;8.00;99.90
46730;DHT22;32476;50.002;11.854;2023-04-24T04:27:13;7.90;99.90
46730;DHT22;32476;50.002;11.854;2023-04-24T04:29:39;7.90;99.90
46730;DHT22;32476;50.002;11.854;2023-04-24T04:32:05;7.90;99.90
46730;DHT22;32476;50.002;11.854;2023-04-24T04:34:33;7.90;99.90
46730;DHT22;32476;50.002;11.854;2023-04-24T04:36:59;7.90;99.90
46730;DHT22;32476;50.002;11.854;2023-04-24T04:39:26;7.90;99.90
46730;DHT22;32476;50.002;11.854;2023-04-24T04:41:55;7.90;99.90
46730;DHT22;32476;50.002;11.854;2023-04-24T04:44:21;7.90;99.90
46730;DHT22;32476;50.002;11.854;2023-04-24T04:46:47;7.90;99.90
46730;DHT22;32476;50.002;11.854;2023-04-24T04:49:14;7.90;99.90
46730;DHT22;32476;50.002;11.854;2023-04-24T04:51:42;7.90;99.90
46730;DHT22;32476;50.002;11.854;2023-04-24T04:54:08;7.90;99.90
46730;DHT22;32476;50.002;11.854;2023-04-24T04:56:35;7.90;99.90
46730;DHT22;32476;50.002;11.854;2023-04-24T04:59:01;7.90;99.90
46730;DHT22;32476;50.002;11.854;2023-04-24T05:01:26;7.90;99.90
46730;DHT22;32476;50.002;11.854;2023-04-24T05:03:54;7.90;99.90
46730;DHT22;32476;50.002;11.854;2023-04-24T05:06:20;7.90;99.90
46730;DHT22;32476;50.002;11.854;2023-04-24T05:08:46;7.90;99.90
46730;DHT22;32476;50.002;11.854;2023-04-24T05:11:13;7.90;99.90
46730;DHT22;32476;50.002;11.854;2023-04-24T05:13:39;7.90;99.90
46730;DHT22;32476;50.002;11.854;2023-04-24T05:16:05;7.90;99.90
46730;DHT22;32476;50.002;11.854;2023-04-24T05:18:32;7.90;99.90
46730;DHT22;32476;50.002;11.854;2023-04-24T05:20:58;7.90;99.90
46730;DHT22;32476;50.002;11.854;2023-04-24T05:23:24;8.00;99.90
46730;DHT22;32476;50.002;11.854;2023-04-24T05:25:51;8.00;99.90
46730;DHT22;32476;50.002;11.854;2023-04-24T05:28:17;7.90;99.90
46730;DHT22;32476;50.002;11.854;2023-04-24T05:30:43;7.90;99.90
46730;DHT22;32476;50.002;11.854;2023-04-24T05:33:10;7.90;99.90
46730;DHT22;32476;50.002;11.854;2023-04-24T05:35:37;7.90;99.90
46730;DHT22;32476;50.002;11.854;2023-04-24T05:38:04;7.90;99.90
46730;DHT22;32476;50.002;11.854;2023-04-24T05:40:33;7.90;99.90
46730;DHT22;32476;50.002;11.854;2023-04-24T05:42:58;7.90;99.90
46730;DHT22;32476;50.002;11.854;2023-04-24T05:45:24;7.90;99.90
46730;DHT22;32476;50.002;11.854;2023-04-24T05:47:52;8.00;99.90
46730;DHT22;32476;50.002;11.854;2023-04-24T05:50:18;7.90;99.90
46730;DHT22;32476;50.002;11.854;2023-04-24T05:52:44;8.00;99.90
46730;DHT22;32476;50.002;11.854;2023-04-24T05:55:11;8.00;99.90
46730;DHT22;32476;50.002;11.854;2023-04-24T05:57:38;7.90;99.90
46730;DHT22;32476;50.002;11.854;2023-04-24T06:00:04;8.00;99.90
46730;DHT22;32476;50.002;11.854;2023-04-24T06:02:32;8.00;99.90
46730;DHT22;32476;50.002;11.854;2023-04-24T06:04:58;8.00;99.90
46730;DHT22;32476;50.002;11.854;2023-04-24T06:07:25;8.00;99.90
46730;DHT22;32476;50.002;11.854;2023-04-24T06:09:56;8.10;99.90
46730;DHT22;32476;50.002;11.854;2023-04-24T06:12:22;8.10;99.90
46730;DHT22;32476;50.002;11.854;2023-04-24T06:14:48;8.20;99.90
46730;DHT22;32476;50.002;11.854;2023-04-24T06:17:16;8.10;99.90
46730;DHT22;32476;50.002;11.854;2023-04-24T06:19:41;8.20;99.90
46730;DHT22;32476;50.002;11.854;2023-04-24T06:22:07;8.20;99.90
46730;DHT22;32476;50.002;11.854;2023-04-24T06:24:35;8.30;99.90
46730;DHT22;32476;50.002;11.854;2023-04-24T06:27:01;8.30;99.90
46730;DHT22;32476;50.002;11.854;2023-04-24T06:29:27;8.40;99.90
46730;DHT22;32476;50.002;11.854;2023-04-24T06:31:54;8.40;99.90
46730;DHT22;32476;50.002;11.854;2023-04-24T06:34:20;8.40;99.90
46730;DHT22;32476;50.002;11.854;2023-04-24T06:36:47;8.50;99.90
46730;DHT22;32476;50.002;11.854;2023-04-24T06:39:14;8.40;99.90
46730;DHT22;32476;50.002;11.854;2023-04-24T06:41:40;8.60;99.90
46730;DHT22;32476;50.002;11.854;2023-04-24T06:44:06;8.60;99.90
46730;DHT22;32476;50.002;11.854;2023-04-24T06:46:33;8.70;99.90
46730;DHT22;32476;50.002;11.854;2023-04-24T06:49:00;8.70;99.90
46730;DHT22;32476;50.002;11.854;2023-04-24T06:51:26;8.80;99.90
46730;DHT22;32476;50.002;11.854;2023-04-24T06:53:54;8.80;99.90
46730;DHT22;32476;50.002;11.854;2023-04-24T06:56:22;8.80;99.90
46730;DHT22;32476;50.002;11.854;2023-04-24T06:58:48;8.90;99.90
46730;DHT22;32476;50.002;11.854;2023-04-24T07:01:15;8.80;99.90
46730;DHT22;32476;50.002;11.854;2023-04-24T07:03:41;8.80;99.90
46730;DHT22;32476;50.002;11.854;2023-04-24T07:06:07;9.00;99.90
46730;DHT22;32476;50.002;11.854;2023-04-24T07:08:34;9.00;99.90
46730;DHT22;32476;50.002;11.854;2023-04-24T07:11:01;9.10;99.90
46730;DHT22;32476;50.002;11.854;2023-04-24T07:13:27;9.40;99.90
46730;DHT22;32476;50.002;11.854;2023-04-24T07:15:54;9.30;99.90
46730;DHT22;32476;50.002;11.854;2023-04-24T07:18:22;9.20;99.90
46730;DHT22;32476;50.002;11.854;2023-04-24T07:20:48;9.10;99.90
46730;DHT22;32476;50.002;11.854;2023-04-24T07:23:18;9.10;99.90
46730;DHT22;32476;50.002;11.854;2023-04-24T07:25:43;8.90;99.90
46730;DHT22;32476;50.002;11.854;2023-04-24T07:28:09;8.80;99.90
46730;DHT22;32476;50.002;11.854;2023-04-24T07:30:37;8.80;99.90
46730;DHT22;32476;50.002;11.854;2023-04-24T07:33:02;8.60;99.90
46730;DHT22;32476;50.002;11.854;2023-04-24T07:35:28;8.50;99.90
46730;DHT22;32476;50.002;11.854;2023-04-24T07:37:56;8.40;99.90
46730;DHT22;32476;50.002;11.854;2023-04-24T07:40:22;8.20;99.90
46730;DHT22;32476;50.002;11.854;2023-04-24T07:42:48;8.10;99.90
46730;DHT22;32476;50.002;11.854;2023-04-24T07:45:15;8.10;99.90
46730;DHT22;32476;50.002;11.854;2023-04-24T07:47:42;8.10;99.90
46730;DHT22;32476;50.002;11.854;2023-04-24T07:50:09;8.00;99.90
46730;DHT22;32476;50.002;11.854;2023-04-24T07:52:37;8.10;99.90
46730;DHT22;32476;50.002;11.854;2023-04-24T07:55:03;8.00;99.90
46730;DHT22;32476;50.002;11.854;2023-04-24T07:57:29;8.20;99.90
46730;DHT22;32476;50.002;11.854;2023-04-24T07:59:56;8.20;99.90
46730;DHT22;32476;50.002;11.854;2023-04-24T08:02:22;8.30;99.90
46730;DHT22;32476;50.002;11.854;2023-04-24T08:04:52;8.30;99.90
46730;DHT22;32476;50.002;11.854;2023-04-24T08:07:23;8.40;99.90
46730;DHT22;32476;50.002;11.854;2023-04-24T08:09:49;8.30;99.90
46730;DHT22;32476;50.002;11.854;2023-04-24T08:12:15;8.30;99.90
46730;DHT22;32476;50.002;11.854;2023-04-24T08:14:42;8.40;99.90
46730;DHT22;32476;50.002;11.854;2023-04-24T08:17:08;8.40;99.90
46730;DHT22;32476;50.002;11.854;2023-04-24T08:19:34;8.60;99.90
46730;DHT22;32476;50.002;11.854;2023-04-24T08:22:01;8.60;99.90
46730;DHT22;32476;50.002;11.854;2023-04-24T08:24:27;8.70;99.90
46730;DHT22;32476;50.002;11.854;2023-04-24T08:26:52;8.90;99.90
46730;DHT22;32476;50.002;11.854;2023-04-24T08:29:21;8.90;99.90
46730;DHT22;32476;50.002;11.854;2023-04-24T08:31:46;9.00;99.90
46730;DHT22;32476;50.002;11.854;2023-04-24T08:34:12;9.20;99.90
46730;DHT22;32476;50.002;11.854;2023-04-24T08:36:40;9.30;99.90
46730;DHT22;32476;50.002;11.854;2023-04-24T08:39:06;9.50;99.90
46730;DHT22;32476;50.002;11.854;2023-04-24T08:41:34;9.70;99.90
46730;DHT22;32476;50.002;11.854;2023-04-24T08:44:02;9.70;99.90
46730;DHT22;32476;50.002;11.854;2023-04-24T08:46:29;9.90;99.90
46730;DHT22;32476;50.002;11.854;2023-04-24T08:48:56;10.40;99.90
46730;DHT22;32476;50.002;11.854;2023-04-24T08:51:25;10.50;99.90
46730;DHT22;32476;50.002;11.854;2023-04-24T08:53:53;10.10;99.90
46730;DHT22;32476;50.002;11.854;2023-04-24T08:56:21;10.00;99.90
46730;DHT22;32476;50.002;11.854;2023-04-24T08:58:51;10.10;99.90
46730;DHT22;32476;50.002;11.854;2023-04-24T09:01:19;10.60;99.90
46730;DHT22;32476;50.002;11.854;2023-04-24T09:03:47;10.80;99.90
46730;DHT22;32476;50.002;11.854;2023-04-24T09:06:17;10.30;99.90
46730;DHT22;32476;50.002;11.854;2023-04-24T09:08:45;10.40;99.90
46730;DHT22;32476;50.002;11.854;2023-04-24T09:11:11;10.20;99.90
46730;DHT22;32476;50.002;11.854;2023-04-24T09:13:39;10.20;99.90
46730;DHT22;32476;50.002;11.854;2023-04-24T09:16:05;10.30;99.90
46730;DHT22;32476;50.002;11.854;2023-04-24T09:18:31;10.20;99.90
46730;DHT22;32476;50.002;11.854;2023-04-24T09:21:04;10.10;99.90
46730;DHT22;32476;50.002;11.854;2023-04-24T09:23:32;10.00;99.90
46730;DHT22;32476;50.002;11.854;2023-04-24T09:26:00;9.90;99.90
46730;DHT22;32476;50.002;11.854;2023-04-24T09:28:32;9.90;99.90
46730;DHT22;32476;50.002;11.854;2023-04-24T09:31:12;9.70;99.90
46730;DHT22;32476;50.002;11.854;2023-04-24T09:33:40;9.40;99.90
46730;DHT22;32476;50.002;11.854;2023-04-24T09:36:08;9.20;99.90
46730;DHT22;32476;50.002;11.854;2023-04-24T09:38:38;9.30;99.90
46730;DHT22;32476;50.002;11.854;2023-04-24T09:41:08;9.40;99.90
46730;DHT22;32476;50.002;11.854;2023-04-24T09:43:40;9.30;99.90
46730;DHT22;32476;50.002;11.854;2023-04-24T09:46:07;9.40;99.90
46730;DHT22;32476;50.002;11.854;2023-04-24T09:48:37;9.40;99.90
46730;DHT22;32476;50.002;11.854;2023-04-24T09:51:05;9.40;99.90
46730;DHT22;32476;50.002;11.854;2023-04-24T09:53:32;9.50;99.90
46730;DHT22;32476;50.002;11.854;2023-04-24T09:56:09;9.50;99.90
46730;DHT22;32476;50.002;11.854;2023-04-24T09:58:37;9.80;99.90
46730;DHT22;32476;50.002;11.854;2023-04-24T10:01:03;10.30;99.90
46730;DHT22;32476;50.002;11.854;2023-04-24T10:03:33;10.10;99.90
46730;DHT22;32476;50.002;11.854;2023-04-24T10:06:02;10.30;99.90
46730;DHT22;32476;50.002;11.854;2023-04-24T10:08:35;10.10;99.90
46730;DHT22;32476;50.002;11.854;2023-04-24T10:11:03;9.70;99.90
46730;DHT22;32476;50.002;11.854;2023-04-24T10:13:29;9.70;99.90
46730;DHT22;32476;50.002;11.854;2023-04-24T10:15:56;9.80;99.90
46730;DHT22;32476;50.002;11.854;2023-04-24T10:18:26;9.90;99.90
46730;DHT22;32476;50.002;11.854;2023-04-24T10:20:53;9.90;99.90
46730;DHT22;32476;50.002;11.854;2023-04-24T10:23:20;10.00;99.90
46730;DHT22;32476;50.002;11.854;2023-04-24T10:25:48;10.10;99.90
46730;DHT22;32476;50.002;11.854;2023-04-24T10:28:15;10.10;99.90
46730;DHT22;32476;50.002;11.854;2023-04-24T10:30:43;10.10;99.90
46730;DHT22;32476;50.002;11.854;2023-04-24T10:33:11;10.20;99.90
46730;DHT22;32476;50.002;11.854;2023-04-24T10:35:40;10.00;99.90
46730;DHT22;32476;50.002;11.854;2023-04-24T10:38:11;10.00;99.90
46730;DHT22;32476;50.002;11.854;2023-04-24T10:40:39;10.10;99.90
46730;DHT22;32476;50.002;11.854;2023-04-24T10:43:06;10.00;99.90
46730;DHT22;32476;50.002;11.854;2023-04-24T10:45:35;10.00;99.90
46730;DHT22;32476;50.002;11.854;2023-04-24T10:48:03;10.10;99.90
46730;DHT22;32476;50.002;11.854;2023-04-24T10:50:52;9.80;99.90
46730;DHT22;32476;50.002;11.854;2023-04-24T10:53:22;9.90;99.90
46730;DHT22;32476;50.002;11.854;2023-04-24T10:56:08;10.00;99.90
46730;DHT22;32476;50.002;11.854;2023-04-24T10:58:42;9.80;99.90
46730;DHT22;32476;50.002;11.854;2023-04-24T11:01:26;9.60;99.90
46730;DHT22;32476;50.002;11.854;2023-04-24T11:03:58;9.40;99.90
46730;DHT22;32476;50.002;11.854;2023-04-24T11:06:32;9.40;99.90
46730;DHT22;32476;50.002;11.854;2023-04-24T11:09:05;9.50;99.90
46730;DHT22;32476;50.002;11.854;2023-04-24T11:11:33;9.60;99.90
46730;DHT22;32476;50.002;11.854;2023-04-24T11:14:01;9.60;99.90
46730;DHT22;32476;50.002;11.854;2023-04-24T11:29:48;10.10;99.90
46730;DHT22;32476;50.002;11.854;2023-04-24T11:34:48;9.90;99.90
46730;DHT22;32476;50.002;11.854;2023-04-24T11:37:14;9.90;99.90
46730;DHT22;32476;50.002;11.854;2023-04-24T11:39:40;10.00;99.90
46730;DHT22;32476;50.002;11.854;2023-04-24T11:42:09;9.90;99.90
46730;DHT22;32476;50.002;11.854;2023-04-24T11:44:35;9.40;99.90
46730;DHT22;32476;50.002;11.854;2023-04-24T11:47:05;9.60;99.90
46730;DHT22;32476;50.002;11.854;2023-04-24T11:49:36;9.90;99.90
46730;DHT22;32476;50.002;11.854;2023-04-24T11:52:02;10.20;99.90
46730;DHT22;32476;50.002;11.854;2023-04-24T11:54:28;9.90;99.90
46730;DHT22;32476;50.002;11.854;2023-04-24T11:56:56;10.00;99.90
46730;DHT22;32476;50.002;11.854;2023-04-24T11:59:23;10.00;99.90
46730;DHT22;32476;50.002;11.854;2023-04-24T12:01:49;9.90;99.90
46730;DHT22;32476;50.002;11.854;2023-04-24T12:04:18;9.80;99.90
46730;DHT22;32476;50.002;11.854;2023-04-24T12:07:03;10.00;99.90
46730;DHT22;32476;50.002;11.854;2023-04-24T12:09:46;10.30;99.90
46730;DHT22;32476;50.002;11.854;2023-04-24T12:12:16;10.90;99.90
46730;DHT22;32476;50.002;11.854;2023-04-24T12:17:13;11.30;99.90
46730;DHT22;32476;50.002;11.854;2023-04-24T12:19:45;11.40;99.90
46730;DHT22;32476;50.002;11.854;2023-04-24T12:22:12;11.50;99.90
46730;DHT22;32476;50.002;11.854;2023-04-24T12:27:34;11.30;99.90
46730;DHT22;32476;50.002;11.854;2023-04-24T12:30:01;10.90;99.90
46730;DHT22;32476;50.002;11.854;2023-04-24T12:32:29;11.00;99.90
46730;DHT22;32476;50.002;11.854;2023-04-24T12:34:55;11.00;99.90
46730;DHT22;32476;50.002;11.854;2023-04-24T12:37:26;10.80;99.90
46730;DHT22;32476;50.002;11.854;2023-04-24T12:40:04;10.60;99.90
46730;DHT22;32476;50.002;11.854;2023-04-24T12:42:34;10.70;99.90
46730;DHT22;32476;50.002;11.854;2023-04-24T12:45:05;10.70;99.90
46730;DHT22;32476;50.002;11.854;2023-04-24T12:47:32;10.30;99.90
46730;DHT22;32476;50.002;11.854;2023-04-24T12:49:58;9.90;99.90
46730;DHT22;32476;50.002;11.854;2023-04-24T12:52:29;9.90;99.90
46730;DHT22;32476;50.002;11.854;2023-04-24T12:54:59;9.90;99.90
46730;DHT22;32476;50.002;11.854;2023-04-24T12:57:31;9.80;99.90
46730;DHT22;32476;50.002;11.854;2023-04-24T12:59:58;9.80;99.90
46730;DHT22;32476;50.002;11.854;2023-04-24T13:02:26;9.70;99.90
46730;DHT22;32476;50.002;11.854;2023-04-24T13:04:54;9.70;99.90
46730;DHT22;32476;50.002;11.854;2023-04-24T13:07:20;10.20;99.90
46730;DHT22;32476;50.002;11.854;2023-04-24T13:09:47;10.60;99.90
46730;DHT22;32476;50.002;11.854;2023-04-24T13:12:14;11.00;99.90
46730;DHT22;32476;50.002;11.854;2023-04-24T13:14:40;10.90;99.90
46730;DHT22;32476;50.002;11.854;2023-04-24T13:17:06;10.90;99.90
46730;DHT22;32476;50.002;11.854;2023-04-24T13:19:39;10.60;99.90
46730;DHT22;32476;50.002;11.854;2023-04-24T13:22:05;10.00;99.90
46730;DHT22;32476;50.002;11.854;2023-04-24T13:24:32;9.80;99.90
46730;DHT22;32476;50.002;11.854;2023-04-24T13:26:59;9.70;99.90
46730;DHT22;32476;50.002;11.854;2023-04-24T13:29:25;9.70;99.90
46730;DHT22;32476;50.002;11.854;2023-04-24T13:31:51;9.70;99.90
46730;DHT22;32476;50.002;11.854;2023-04-24T13:34:22;9.80;99.90
46730;DHT22;32476;50.002;11.854;2023-04-24T13:36:49;9.80;99.90
46730;DHT22;32476;50.002;11.854;2023-04-24T13:39:16;9.60;99.90
46730;DHT22;32476;50.002;11.854;2023-04-24T13:41:44;9.60;99.90
46730;DHT22;32476;50.002;11.854;2023-04-24T13:44:10;9.50;99.90
46730;DHT22;32476;50.002;11.854;2023-04-24T13:46:36;9.40;99.90
46730;DHT22;32476;50.002;11.854;2023-04-24T13:49:04;9.70;99.90
46730;DHT22;32476;50.002;11.854;2023-04-24T13:51:30;9.70;99.90
46730;DHT22;32476;50.002;11.854;2023-04-24T13:53:55;9.80;99.90
46730;DHT22;32476;50.002;11.854;2023-04-24T13:56:23;9.80;99.90
46730;DHT22;32476;50.002;11.854;2023-04-24T13:58:49;9.80;99.90
46730;DHT22;32476;50.002;11.854;2023-04-24T14:01:14;9.70;99.90
46730;DHT22;32476;50.002;11.854;2023-04-24T14:03:42;9.80;99.90
46730;DHT22;32476;50.002;11.854;2023-04-24T14:06:11;9.60;99.90
46730;DHT22;32476;50.002;11.854;2023-04-24T14:08:37;9.40;99.90
46730;DHT22;32476;50.002;11.854;2023-04-24T14:11:04;9.40;99.90
46730;DHT22;32476;50.002;11.854;2023-04-24T14:13:30;9.60;99.90
46730;DHT22;32476;50.002;11.854;2023-04-24T14:15:56;9.50;99.90
46730;DHT22;32476;50.002;11.854;2023-04-24T14:18:23;9.40;99.90
46730;DHT22;32476;50.002;11.854;2023-04-24T14:20:49;9.50;99.90
46730;DHT22;32476;50.002;11.854;2023-04-24T14:23:15;9.70;99.90
46730;DHT22;32476;50.002;11.854;2023-04-24T14:25:43;9.80;99.90
46730;DHT22;32476;50.002;11.854;2023-04-24T14:28:09;9.80;99.90
46730;DHT22;32476;50.002;11.854;2023-04-24T14:30:35;9.70;99.90
46730;DHT22;32476;50.002;11.854;2023-04-24T14:33:04;9.60;99.90
46730;DHT22;32476;50.002;11.854;2023-04-24T14:35:30;9.70;99.90
46730;DHT22;32476;50.002;11.854;2023-04-24T14:37:58;9.60;99.90
46730;DHT22;32476;50.002;11.854;2023-04-24T14:40:26;9.50;99.90
46730;DHT22;32476;50.002;11.854;2023-04-24T14:42:52;9.50;99.90
46730;DHT22;32476;50.002;11.854;2023-04-24T14:45:18;9.40;99.90
46730;DHT22;32476;50.002;11.854;2023-04-24T14:47:45;9.30;99.90
46730;DHT22;32476;50.002;11.854;2023-04-24T14:50:11;9.30;99.90
46730;DHT22;32476;50.002;11.854;2023-04-24T14:52:38;9.20;99.90
46730;DHT22;32476;50.002;11.854;2023-04-24T14:55:06;9.20;99.90
46730;DHT22;32476;50.002;11.854;2023-04-24T14:57:33;9.20;99.90
46730;DHT22;32476;50.002;11.854;2023-04-24T15:00:00;9.20;99.90
46730;DHT22;32476;50.002;11.854;2023-04-24T15:02:27;9.20;99.90
46730;DHT22;32476;50.002;11.854;2023-04-24T15:04:53;9.10;99.90
46730;DHT22;32476;50.002;11.854;2023-04-24T15:07:19;9.00;99.90
46730;DHT22;32476;50.002;11.854;2023-04-24T15:09:46;8.90;99.90
46730;DHT22;32476;50.002;11.854;2023-04-24T15:12:13;8.80;99.90
46730;DHT22;32476;50.002;11.854;2023-04-24T15:14:38;8.80;99.90
46730;DHT22;32476;50.002;11.854;2023-04-24T15:17:06;8.80;99.90
46730;DHT22;32476;50.002;11.854;2023-04-24T15:19:32;8.80;99.90
46730;DHT22;32476;50.002;11.854;2023-04-24T15:21:57;8.70;99.90
46730;DHT22;32476;50.002;11.854;2023-04-24T15:24:25;8.60;99.90
46730;DHT22;32476;50.002;11.854;2023-04-24T15:26:50;8.30;99.90
46730;DHT22;32476;50.002;11.854;2023-04-24T15:29:16;8.00;99.90
46730;DHT22;32476;50.002;11.854;2023-04-24T15:31:44;7.60;99.90
46730;DHT22;32476;50.002;11.854;2023-04-24T15:34:10;7.30;99.90
46730;DHT22;32476;50.002;11.854;2023-04-24T15:36:35;7.10;99.90
46730;DHT22;32476;50.002;11.854;2023-04-24T15:39:04;7.00;99.90
46730;DHT22;32476;50.002;11.854;2023-04-24T15:41:30;6.90;99.90
46730;DHT22;32476;50.002;11.854;2023-04-24T15:43:57;6.80;99.90
46730;DHT22;32476;50.002;11.854;2023-04-24T15:46:25;6.70;99.90
46730;DHT22;32476;50.002;11.854;2023-04-24T15:48:50;6.70;99.90